Cannon Air Force Base
KCVS : rendu visible

Aérodrome :











RETROUVEZ-NOUS SUR...

 
LOGIN :

S'inscrire | Disclaimer

   EN    FR    IT 

 









Légende :    VFR   VFR Marginal   IFR   IFR Intensif   IFR Très Intensif
Visi : 
Plafond : 
>= 8 km
>= 3000ft
5 à 8 km
1000 à 3000 ft
1500m à 5 km
500 à 1000 ft
800 à 1500m
200 à 500 ft
< 800m
< 200 ft
Symboles :   Orages  Brouillard  Fortes neiges  Fortes précipitations  Vent > 20 kt






- Altitude de l'aérodrome : 4295 ft


KCVS - Cannon Air Force Base

DERNIER METAR :
  • 222158Z AUTO 24014KT 10SM FEW035 11/03 A2999 RMK AO2 SLP147 T01080029 $

METARs EXPIRÉS :
  • 222038Z AUTO 23013KT 10SM BKN023 09/04 A3002 RMK AO2 BKN V SCT SLP161 $
  • 222028Z AUTO 23015G19KT 10SM SCT022 09/04 A3002 RMK AO2 SLP161 $
  • 221958Z AUTO 22015KT 10SM SCT017 08/03 A3003 RMK AO2 SLP164 T00750032 $

TAF TAF KCVS
Valide du 22 à 18h jusqu'au 24 à 00h UTC


221800Z 2218/2324 22012KT 9999 OVC008 QNH3006INS
BECMG 2219/2220 23012G20KT 9999 BKN014 QNH3000INS
BECMG 2221/2222 24010KT 9999 SCT020 QNH2999INS
BECMG 2308/2309 28008KT 8000 BR SKC QNH3007INS
BECMG 2313/2314 30006KT 9999 NSW SKC QNH3014INS
BECMG 2319/2320 33010G18KT 9999 SCT040 QNH3012INS TX09/2222Z TNM01/2312Z



MET'MAP, la Météo Aéronautique d'un coup d'oeil ! - Copyright ORBIFLY Décembre 2007 - Disclaimer

ORBIFLY MET'MAP TEAM :

Programmation & Développement : Alexandra Zaïnal
Conception & Développement : Baudouin d'Aumeries
Co-Programmation & Développement : Marc-Olivier Méhu
Soutien technique & logistique : Manuel Goepfert

Contact : metmap@orbifly.com




SOURCES & CREDITS :

   NOAA       Earth
Advisory